createdAt,value
2018-07-31T00:00:08.855Z,5.03
2018-07-31T00:02:36.490Z,4.70
2018-07-31T00:05:04.595Z,4.50
2018-07-31T00:07:32.169Z,4.70
2018-07-31T00:09:59.768Z,4.93
2018-07-31T00:12:27.432Z,4.83
2018-07-31T00:14:55.063Z,5.20
2018-07-31T00:17:22.687Z,5.15
2018-07-31T00:19:50.444Z,5.05
2018-07-31T00:22:18.080Z,6.15
2018-07-31T00:24:45.775Z,5.53
2018-07-31T00:27:13.360Z,5.45
2018-07-31T00:29:41.044Z,4.65
2018-07-31T00:32:09.205Z,4.70
2018-07-31T00:34:36.779Z,5.37
2018-07-31T00:37:04.412Z,4.55
2018-07-31T00:39:32.034Z,4.85
2018-07-31T00:41:59.621Z,4.70
2018-07-31T00:44:27.241Z,4.78
2018-07-31T00:46:54.875Z,4.47
2018-07-31T00:49:22.697Z,4.40
2018-07-31T00:51:50.339Z,4.50
2018-07-31T00:54:17.915Z,4.87
2018-07-31T00:56:45.568Z,4.00
2018-07-31T00:59:13.199Z,4.50
2018-07-31T01:01:40.785Z,4.60
2018-07-31T01:04:08.400Z,4.30
2018-07-31T01:06:43.788Z,4.70
2018-07-31T01:09:12.872Z,4.50
2018-07-31T01:11:40.591Z,4.60
2018-07-31T01:14:09.086Z,4.75
2018-07-31T01:16:37.800Z,4.75
2018-07-31T01:19:05.371Z,4.37
2018-07-31T01:21:33.155Z,4.87
2018-07-31T01:24:00.784Z,4.50
2018-07-31T01:26:28.372Z,4.72
2018-07-31T01:28:55.995Z,5.22
2018-07-31T01:31:23.667Z,5.33
2018-07-31T01:33:51.326Z,5.53
2018-07-31T01:36:18.930Z,5.12
2018-07-31T01:38:46.549Z,5.12
2018-07-31T01:41:14.173Z,5.00
2018-07-31T01:43:41.736Z,5.05
2018-07-31T01:46:09.861Z,4.85
2018-07-31T01:48:37.325Z,5.10
2018-07-31T01:51:04.931Z,4.78
2018-07-31T01:53:32.752Z,5.78
2018-07-31T01:56:00.383Z,6.10
2018-07-31T01:58:28.003Z,5.90
2018-07-31T02:00:55.723Z,5.55
2018-07-31T02:03:23.552Z,5.72
2018-07-31T02:05:51.487Z,5.97
2018-07-31T02:08:19.089Z,4.90
2018-07-31T02:10:48.562Z,5.22
2018-07-31T02:13:16.580Z,5.08
2018-07-31T02:15:44.523Z,5.58
2018-07-31T02:18:12.048Z,5.17
2018-07-31T02:20:40.171Z,5.67
2018-07-31T02:23:08.188Z,5.80
2018-07-31T02:25:35.775Z,5.62
2018-07-31T02:28:03.371Z,5.37
2018-07-31T02:30:30.931Z,5.62
2018-07-31T02:32:58.689Z,5.53
2018-07-31T02:35:26.264Z,5.47
2018-07-31T02:37:53.854Z,5.58
2018-07-31T02:40:21.412Z,5.45
2018-07-31T02:42:49.000Z,5.90
2018-07-31T02:45:16.755Z,4.90
2018-07-31T02:47:44.728Z,6.00
2018-07-31T02:50:12.358Z,6.12
2018-07-31T02:52:40.682Z,5.30
2018-07-31T02:55:09.523Z,4.78
2018-07-31T02:57:37.488Z,4.92
2018-07-31T03:00:06.459Z,4.92
2018-07-31T03:02:34.390Z,4.65
2018-07-31T03:05:02.026Z,4.30
2018-07-31T03:07:29.687Z,4.03
2018-07-31T03:09:57.539Z,4.70
2018-07-31T03:12:25.228Z,6.25
2018-07-31T03:14:52.879Z,4.85
2018-07-31T03:17:20.891Z,5.87
2018-07-31T03:19:48.468Z,5.25
2018-07-31T03:22:16.116Z,5.75
2018-07-31T03:24:43.860Z,5.92
2018-07-31T03:27:11.473Z,6.37
2018-07-31T03:29:39.080Z,6.20
2018-07-31T03:32:06.945Z,6.90
2018-07-31T03:34:34.438Z,6.35
2018-07-31T03:37:02.036Z,6.58
2018-07-31T03:39:29.827Z,6.25
2018-07-31T03:41:57.430Z,5.33
2018-07-31T03:44:25.386Z,5.80
2018-07-31T03:46:53.252Z,5.28
2018-07-31T03:49:21.197Z,5.03
2018-07-31T03:51:50.997Z,5.37
2018-07-31T03:54:18.624Z,4.62
2018-07-31T03:56:46.201Z,5.00
2018-07-31T03:59:13.798Z,4.92
2018-07-31T04:01:41.464Z,4.55
2018-07-31T04:04:09.018Z,4.30
2018-07-31T04:06:36.608Z,4.70
2018-07-31T04:09:07.891Z,6.08
2018-07-31T04:11:35.531Z,5.45
2018-07-31T04:14:03.191Z,5.62
2018-07-31T04:16:31.695Z,7.80
2018-07-31T04:18:59.271Z,9.60
2018-07-31T04:21:26.871Z,8.53
2018-07-31T04:23:54.410Z,8.08
2018-07-31T04:26:22.035Z,7.22
2018-07-31T04:28:49.686Z,5.83
2018-07-31T04:31:17.300Z,5.80
2018-07-31T04:33:45.199Z,6.30
2018-07-31T04:36:13.018Z,5.67
2018-07-31T04:38:40.606Z,5.22
2018-07-31T04:41:08.219Z,6.25
2018-07-31T04:43:36.168Z,6.42
2018-07-31T04:46:03.836Z,6.12
2018-07-31T04:48:31.429Z,5.42
2018-07-31T04:50:58.997Z,4.95
2018-07-31T04:53:26.580Z,6.50
2018-07-31T04:55:54.225Z,6.15
2018-07-31T04:58:21.783Z,5.60
2018-07-31T05:00:49.374Z,4.92
2018-07-31T05:03:16.999Z,4.78
2018-07-31T05:05:44.645Z,5.03
2018-07-31T05:08:12.226Z,5.50
2018-07-31T05:10:39.874Z,4.33
2018-07-31T05:13:07.449Z,5.47
2018-07-31T05:15:35.305Z,4.58
2018-07-31T05:18:03.110Z,4.70
2018-07-31T05:20:30.757Z,4.12
2018-07-31T05:22:58.335Z,3.70
2018-07-31T05:25:26.196Z,4.40
2018-07-31T05:27:53.791Z,3.77
2018-07-31T05:30:21.665Z,3.58
2018-07-31T05:32:49.396Z,3.50
2018-07-31T05:35:16.869Z,4.35
2018-07-31T05:37:44.492Z,3.80
2018-07-31T05:40:12.090Z,4.00
2018-07-31T05:42:39.705Z,3.70
2018-07-31T05:45:07.383Z,4.25
2018-07-31T05:47:35.113Z,4.47
2018-07-31T05:50:02.771Z,5.70
2018-07-31T05:52:30.963Z,5.22
2018-07-31T05:54:58.632Z,4.00
2018-07-31T05:57:26.269Z,4.12
2018-07-31T05:59:53.920Z,3.70
2018-07-31T06:02:21.629Z,3.10
2018-07-31T06:04:49.225Z,3.35
2018-07-31T06:07:16.916Z,3.27
2018-07-31T06:09:44.573Z,2.95
2018-07-31T06:12:12.208Z,3.15
2018-07-31T06:14:40.046Z,3.65
2018-07-31T06:17:07.759Z,3.30
2018-07-31T06:19:35.580Z,3.08
2018-07-31T06:22:03.549Z,3.30
2018-07-31T06:24:31.309Z,4.28
2018-07-31T06:26:59.100Z,3.90
2018-07-31T06:29:26.889Z,3.52
2018-07-31T06:31:54.632Z,3.00
2018-07-31T06:34:22.297Z,3.30
2018-07-31T06:36:49.943Z,3.52
2018-07-31T06:39:18.633Z,3.90
2018-07-31T06:41:46.321Z,4.80
2018-07-31T06:44:13.936Z,5.65
2018-07-31T06:46:41.883Z,5.42
2018-07-31T06:49:10.635Z,6.92
2018-07-31T06:51:38.555Z,6.10
2018-07-31T06:54:06.250Z,6.20
2018-07-31T06:56:33.910Z,6.10
2018-07-31T06:59:01.521Z,6.17
2018-07-31T07:01:29.063Z,6.15
2018-07-31T07:03:56.708Z,5.72
2018-07-31T07:06:24.350Z,5.40
2018-07-31T07:08:52.008Z,4.58
2018-07-31T07:11:19.809Z,4.60
2018-07-31T07:13:47.624Z,6.40
2018-07-31T07:16:15.305Z,6.15
2018-07-31T07:18:44.163Z,5.17
2018-07-31T07:21:11.987Z,5.25
2018-07-31T07:23:39.809Z,5.92
2018-07-31T07:26:07.765Z,5.95
2018-07-31T07:28:36.076Z,5.47
2018-07-31T07:31:03.847Z,5.25
2018-07-31T07:33:31.729Z,6.50
2018-07-31T07:35:59.977Z,5.20
2018-07-31T07:38:28.207Z,5.22
2018-07-31T07:40:55.892Z,4.58
2018-07-31T07:43:23.789Z,6.08
2018-07-31T07:45:51.571Z,6.87
2018-07-31T07:48:20.013Z,5.87
2018-07-31T07:50:47.604Z,6.20
2018-07-31T07:53:15.222Z,5.85
2018-07-31T07:55:45.656Z,5.62
2018-07-31T07:58:13.637Z,4.78
2018-07-31T08:00:41.316Z,6.12
2018-07-31T08:03:09.029Z,6.40
2018-07-31T08:05:36.798Z,6.30
2018-07-31T08:08:08.684Z,7.78
2018-07-31T08:10:37.437Z,7.35
2018-07-31T08:13:05.388Z,7.35
2018-07-31T08:15:39.677Z,6.20
2018-07-31T08:18:07.461Z,5.55
2018-07-31T08:20:35.293Z,5.22
2018-07-31T08:23:03.800Z,5.62
2018-07-31T08:25:31.456Z,6.50
2018-07-31T08:27:59.323Z,5.70
2018-07-31T08:30:26.972Z,4.95
2018-07-31T08:32:54.693Z,5.30
2018-07-31T08:35:22.393Z,5.37
2018-07-31T08:37:50.280Z,6.47
2018-07-31T08:40:18.509Z,6.40
2018-07-31T08:42:46.053Z,6.75
2018-07-31T08:45:13.647Z,5.58
2018-07-31T08:47:41.703Z,5.95
2018-07-31T08:50:09.751Z,5.35
2018-07-31T08:52:37.404Z,4.45
2018-07-31T08:55:05.059Z,6.75
2018-07-31T08:57:32.653Z,8.30
2018-07-31T09:00:00.373Z,8.20
2018-07-31T09:02:28.019Z,8.15
2018-07-31T09:04:55.752Z,7.10
2018-07-31T09:07:23.340Z,8.68
2018-07-31T09:09:51.635Z,8.60
2018-07-31T09:12:19.154Z,6.67
2018-07-31T09:14:46.740Z,6.37
2018-07-31T09:17:14.923Z,6.10
2018-07-31T09:19:42.497Z,5.80
2018-07-31T09:22:10.149Z,4.95
2018-07-31T09:24:37.813Z,4.30
2018-07-31T09:27:05.335Z,5.37
2018-07-31T09:29:32.867Z,4.78
2018-07-31T09:32:00.396Z,4.37
2018-07-31T09:34:27.991Z,4.10
2018-07-31T09:36:55.543Z,4.40
2018-07-31T09:39:23.106Z,4.90
2018-07-31T09:41:50.680Z,5.22
2018-07-31T09:44:18.253Z,4.72
2018-07-31T09:46:45.963Z,4.75
2018-07-31T09:49:13.536Z,4.12
2018-07-31T09:51:41.069Z,4.30
2018-07-31T09:54:08.617Z,5.58
2018-07-31T09:56:36.139Z,5.50
2018-07-31T09:59:03.838Z,5.30
2018-07-31T10:01:31.578Z,5.80
2018-07-31T10:03:59.187Z,5.20
2018-07-31T10:06:26.921Z,5.78
2018-07-31T10:08:54.633Z,4.80
2018-07-31T10:11:22.239Z,5.27
2018-07-31T10:13:49.972Z,5.35
2018-07-31T10:16:17.605Z,4.50
2018-07-31T10:18:45.242Z,3.83
2018-07-31T10:21:12.868Z,4.85
2018-07-31T10:23:40.569Z,5.50
2018-07-31T10:26:08.274Z,5.87
2018-07-31T10:28:36.050Z,5.30
2018-07-31T10:31:04.058Z,6.08
2018-07-31T10:33:31.780Z,5.58
2018-07-31T10:35:59.331Z,5.53
2018-07-31T10:38:26.948Z,4.85
2018-07-31T10:40:54.590Z,5.15
2018-07-31T10:43:22.435Z,4.30
2018-07-31T10:45:50.257Z,4.20
2018-07-31T10:48:17.932Z,4.75
2018-07-31T10:50:45.670Z,5.00
2018-07-31T10:53:13.154Z,4.12
2018-07-31T10:55:41.255Z,4.87
2018-07-31T10:58:09.232Z,5.50
2018-07-31T11:00:36.906Z,5.40
2018-07-31T11:03:04.775Z,6.08
2018-07-31T11:05:32.427Z,5.62
2018-07-31T11:08:00.484Z,4.78
2018-07-31T11:10:28.191Z,5.20
2018-07-31T11:12:55.796Z,5.33
2018-07-31T11:15:23.511Z,6.05
2018-07-31T11:17:51.101Z,5.10
2018-07-31T11:20:18.712Z,5.87
2018-07-31T11:22:47.242Z,5.80
2018-07-31T11:25:14.932Z,4.95
2018-07-31T11:27:42.581Z,5.03
2018-07-31T11:30:10.880Z,5.25
2018-07-31T11:32:38.605Z,5.00
2018-07-31T11:35:06.460Z,4.60
2018-07-31T11:37:34.300Z,5.00
2018-07-31T11:40:02.344Z,4.00
2018-07-31T11:42:29.954Z,4.30
2018-07-31T11:44:57.760Z,4.28
2018-07-31T11:47:25.435Z,5.83
2018-07-31T11:49:53.275Z,5.33
2018-07-31T11:52:20.958Z,5.70
2018-07-31T11:54:55.249Z,6.58
2018-07-31T11:57:22.816Z,5.33
2018-07-31T11:59:50.557Z,5.65
2018-07-31T12:02:18.229Z,6.40
2018-07-31T12:04:45.894Z,6.15
2018-07-31T12:07:13.511Z,5.83
2018-07-31T12:09:41.221Z,5.97
2018-07-31T12:12:08.975Z,5.37
2018-07-31T12:14:36.656Z,5.20
2018-07-31T12:17:04.477Z,5.37
2018-07-31T12:19:32.237Z,6.08
2018-07-31T12:21:59.835Z,6.22
2018-07-31T12:24:27.537Z,5.78
2018-07-31T12:26:55.314Z,5.65
2018-07-31T12:29:23.124Z,6.53
2018-07-31T12:31:50.840Z,7.33
2018-07-31T12:34:18.434Z,5.85
2018-07-31T12:36:46.069Z,5.20
2018-07-31T12:39:13.862Z,6.28
2018-07-31T12:41:42.209Z,7.47
2018-07-31T12:44:09.911Z,6.83
2018-07-31T12:46:37.944Z,7.00
2018-07-31T12:49:05.989Z,6.60
2018-07-31T12:51:33.679Z,8.43
2018-07-31T12:54:01.551Z,7.60
2018-07-31T12:56:29.325Z,7.80
2018-07-31T12:58:57.283Z,7.25
2018-07-31T13:01:25.104Z,7.70
2018-07-31T13:03:52.888Z,7.75
2018-07-31T13:06:20.748Z,7.28
2018-07-31T13:08:48.672Z,7.75
2018-07-31T13:11:16.351Z,8.73
2018-07-31T13:13:44.152Z,8.43
2018-07-31T13:16:12.024Z,7.90
2018-07-31T13:18:40.417Z,7.87
2018-07-31T13:21:08.198Z,7.50
2018-07-31T13:23:35.813Z,7.85
2018-07-31T13:26:04.468Z,8.40
2018-07-31T13:28:33.167Z,8.78
2018-07-31T13:31:00.962Z,8.30
2018-07-31T13:33:28.491Z,9.35
2018-07-31T13:35:56.320Z,10.43
2018-07-31T13:38:23.932Z,9.03
2018-07-31T13:40:51.820Z,8.43
2018-07-31T13:43:19.512Z,8.60
2018-07-31T13:45:47.317Z,9.05
2018-07-31T13:48:15.096Z,9.13
2018-07-31T13:50:42.719Z,8.00
2018-07-31T13:53:10.520Z,9.23
2018-07-31T13:55:38.173Z,8.10
2018-07-31T13:58:06.057Z,8.10
2018-07-31T14:00:33.729Z,9.00
2018-07-31T14:03:01.557Z,9.43
2018-07-31T14:05:29.259Z,9.08
2018-07-31T14:07:57.062Z,8.85
2018-07-31T14:10:24.860Z,8.48
2018-07-31T14:12:52.524Z,7.97
2018-07-31T14:15:20.173Z,7.37
2018-07-31T14:17:48.864Z,7.22
2018-07-31T14:20:16.533Z,6.70
2018-07-31T14:22:44.244Z,7.60
2018-07-31T14:25:14.084Z,8.03
2018-07-31T14:27:41.822Z,8.13
2018-07-31T14:30:09.557Z,7.80
2018-07-31T14:32:37.264Z,7.90
2018-07-31T14:35:04.852Z,9.00
2018-07-31T14:37:32.914Z,8.23
2018-07-31T14:40:00.539Z,7.67
2018-07-31T14:42:28.305Z,8.95
2018-07-31T14:44:56.017Z,8.40
2018-07-31T14:47:23.583Z,8.75
2018-07-31T14:49:51.278Z,7.87
2018-07-31T14:52:19.093Z,9.15
2018-07-31T14:54:46.838Z,8.35
2018-07-31T14:57:14.693Z,8.65
2018-07-31T14:59:42.396Z,8.63
2018-07-31T15:02:10.337Z,8.48
2018-07-31T15:04:38.049Z,8.65
2018-07-31T15:07:05.944Z,7.92
2018-07-31T15:09:33.614Z,7.70
2018-07-31T15:12:01.554Z,7.03
2018-07-31T15:14:29.261Z,7.60
2018-07-31T15:16:57.585Z,7.87
2018-07-31T15:19:25.257Z,7.58
2018-07-31T15:21:52.889Z,8.95
2018-07-31T15:24:20.748Z,8.23
2018-07-31T15:26:49.140Z,8.30
2018-07-31T15:29:16.936Z,8.33
2018-07-31T15:31:44.837Z,7.37
2018-07-31T15:34:12.461Z,7.70
2018-07-31T15:36:40.116Z,7.87
2018-07-31T15:39:10.914Z,7.65
2018-07-31T15:41:38.590Z,7.40
2018-07-31T15:44:06.313Z,8.55
2018-07-31T15:46:33.925Z,8.20
2018-07-31T15:49:01.666Z,7.00
2018-07-31T15:51:29.364Z,7.40
2018-07-31T15:53:57.360Z,7.37
2018-07-31T15:56:25.106Z,7.58
2018-07-31T15:58:52.751Z,7.15
2018-07-31T16:01:20.574Z,7.50
2018-07-31T16:03:48.447Z,7.87
2018-07-31T16:06:17.772Z,8.10
2018-07-31T16:08:45.522Z,7.83
2018-07-31T16:11:13.330Z,8.05
2018-07-31T16:13:40.935Z,8.15
2018-07-31T16:16:08.892Z,6.78
2018-07-31T16:18:36.509Z,7.00
2018-07-31T16:21:04.838Z,6.60
2018-07-31T16:23:32.467Z,7.53
2018-07-31T16:26:00.154Z,7.37
2018-07-31T16:28:28.400Z,6.42
2018-07-31T16:30:56.003Z,7.28
2018-07-31T16:33:23.652Z,7.40
2018-07-31T16:35:51.286Z,7.10
2018-07-31T16:38:19.108Z,7.05
2018-07-31T16:40:46.721Z,7.85
2018-07-31T16:43:14.496Z,7.90
2018-07-31T16:45:42.149Z,7.33
2018-07-31T16:48:12.359Z,8.08
2018-07-31T16:50:39.983Z,8.15
2018-07-31T16:53:07.604Z,7.40
2018-07-31T16:55:42.115Z,6.95
2018-07-31T16:58:09.791Z,6.60
2018-07-31T17:00:37.539Z,7.03
2018-07-31T17:03:05.235Z,7.95
2018-07-31T17:05:32.805Z,9.23
2018-07-31T17:08:00.542Z,8.38
2018-07-31T17:10:28.376Z,8.50
2018-07-31T17:12:56.046Z,8.38
2018-07-31T17:15:25.880Z,8.30
2018-07-31T17:17:53.620Z,8.60
2018-07-31T17:20:23.895Z,8.18
2018-07-31T17:22:51.616Z,8.73
2018-07-31T17:25:19.431Z,8.80
2018-07-31T17:27:47.254Z,8.90
2018-07-31T17:30:15.070Z,8.27
2018-07-31T17:32:42.815Z,8.50
2018-07-31T17:35:10.463Z,8.23
2018-07-31T17:37:38.332Z,8.10
2018-07-31T17:40:06.304Z,7.95
2018-07-31T17:42:34.062Z,7.53
2018-07-31T17:45:01.856Z,7.90
2018-07-31T17:47:29.708Z,8.55
2018-07-31T17:49:57.317Z,7.97
2018-07-31T17:52:25.340Z,8.73
2018-07-31T17:54:53.798Z,8.13
2018-07-31T17:57:21.548Z,9.50
2018-07-31T17:59:49.963Z,8.28
2018-07-31T18:02:17.791Z,7.22
2018-07-31T18:04:45.399Z,7.90
2018-07-31T18:07:12.976Z,8.53
2018-07-31T18:09:40.692Z,8.70
2018-07-31T18:12:08.279Z,8.08
2018-07-31T18:14:36.567Z,7.97
2018-07-31T18:17:04.319Z,8.90
2018-07-31T18:19:31.912Z,9.28
2018-07-31T18:22:00.261Z,8.55
2018-07-31T18:24:28.052Z,9.23
2018-07-31T18:26:55.699Z,8.68
2018-07-31T18:29:23.341Z,9.05
2018-07-31T18:31:50.966Z,8.55
2018-07-31T18:34:18.600Z,8.15
2018-07-31T18:36:46.157Z,7.70
2018-07-31T18:39:13.734Z,7.80
2018-07-31T18:41:41.836Z,7.17
2018-07-31T18:44:09.988Z,6.65
2018-07-31T18:46:37.636Z,8.98
2018-07-31T18:49:05.216Z,9.45
2018-07-31T18:51:33.079Z,9.90
2018-07-31T18:54:01.540Z,9.73
2018-07-31T18:56:29.138Z,8.78
2018-07-31T18:58:56.903Z,8.97
2018-07-31T19:01:24.530Z,8.50
2018-07-31T19:03:52.136Z,8.88
2018-07-31T19:06:19.738Z,7.03
2018-07-31T19:08:47.313Z,7.78
2018-07-31T19:11:18.496Z,8.13
2018-07-31T19:13:46.135Z,9.08
2018-07-31T19:16:13.780Z,8.98
2018-07-31T19:18:41.386Z,8.05
2018-07-31T19:21:09.023Z,8.60
2018-07-31T19:23:36.720Z,8.75
2018-07-31T19:26:04.856Z,9.10
2018-07-31T19:28:32.512Z,9.13
2018-07-31T19:31:00.315Z,8.98
2018-07-31T19:33:28.041Z,9.38
2018-07-31T19:35:56.509Z,7.27
2018-07-31T19:38:30.902Z,7.00
2018-07-31T19:40:58.723Z,6.30
2018-07-31T19:43:26.343Z,5.45
2018-07-31T19:45:54.012Z,6.95
2018-07-31T19:48:21.648Z,8.38
2018-07-31T19:50:49.357Z,8.45
2018-07-31T19:53:17.064Z,8.55
2018-07-31T19:55:44.711Z,8.23
2018-07-31T19:58:12.506Z,7.92
2018-07-31T20:00:40.148Z,8.53
2018-07-31T20:03:07.820Z,8.67
2018-07-31T20:05:35.468Z,8.35
2018-07-31T20:08:03.054Z,8.18
2018-07-31T20:10:30.625Z,7.92
2018-07-31T20:12:58.276Z,7.58
2018-07-31T20:15:25.885Z,7.87
2018-07-31T20:17:53.536Z,8.00
2018-07-31T20:20:21.206Z,8.60
2018-07-31T20:22:48.799Z,9.55
2018-07-31T20:25:16.412Z,8.43
2018-07-31T20:27:44.144Z,6.72
2018-07-31T20:30:11.749Z,6.92
2018-07-31T20:32:39.384Z,7.45
2018-07-31T20:35:06.958Z,7.05
2018-07-31T20:37:34.605Z,6.90
2018-07-31T20:40:02.288Z,6.08
2018-07-31T20:42:29.797Z,6.47
2018-07-31T20:44:57.465Z,6.60
2018-07-31T20:47:25.795Z,6.00
2018-07-31T20:49:53.408Z,5.50
2018-07-31T20:52:21.871Z,6.10
2018-07-31T20:54:49.762Z,5.58
2018-07-31T20:57:17.654Z,5.97
2018-07-31T20:59:45.314Z,6.28
2018-07-31T21:02:14.025Z,4.78
2018-07-31T21:04:41.724Z,4.92
2018-07-31T21:07:09.328Z,4.75
2018-07-31T21:09:37.039Z,4.33
2018-07-31T21:12:04.713Z,4.97
2018-07-31T21:14:32.641Z,5.00
2018-07-31T21:17:00.819Z,4.67
2018-07-31T21:19:28.688Z,4.95
2018-07-31T21:21:56.388Z,4.62
2018-07-31T21:24:24.017Z,4.40
2018-07-31T21:26:51.596Z,4.45
2018-07-31T21:29:19.242Z,4.45
2018-07-31T21:31:46.807Z,4.75
2018-07-31T21:34:14.445Z,4.62
2018-07-31T21:36:42.164Z,4.53
2018-07-31T21:39:11.301Z,6.00
2018-07-31T21:41:39.423Z,5.90
2018-07-31T21:44:07.065Z,6.22
2018-07-31T21:46:34.738Z,6.12
2018-07-31T21:49:03.549Z,5.97
2018-07-31T21:51:31.243Z,5.60
2018-07-31T21:53:58.885Z,4.58
2018-07-31T21:56:26.505Z,4.90
2018-07-31T21:58:54.093Z,4.67
2018-07-31T22:01:21.721Z,4.28
2018-07-31T22:03:49.516Z,4.05
2018-07-31T22:06:17.136Z,3.75
2018-07-31T22:08:44.772Z,3.95
2018-07-31T22:11:12.544Z,3.55
2018-07-31T22:13:40.223Z,3.90
2018-07-31T22:16:07.846Z,4.30
2018-07-31T22:18:35.587Z,4.92
2018-07-31T22:21:03.208Z,6.33
2018-07-31T22:23:30.800Z,6.43
2018-07-31T22:25:58.444Z,5.90
2018-07-31T22:28:26.359Z,5.50
2018-07-31T22:30:53.987Z,5.30
2018-07-31T22:33:21.596Z,6.50
2018-07-31T22:35:49.401Z,5.50
2018-07-31T22:38:16.980Z,5.58
2018-07-31T22:40:44.837Z,4.97
2018-07-31T22:43:12.574Z,5.58
2018-07-31T22:45:40.148Z,4.55
2018-07-31T22:48:07.848Z,4.80
2018-07-31T22:50:35.649Z,5.55
2018-07-31T22:53:03.335Z,5.53
2018-07-31T22:55:30.998Z,5.80
2018-07-31T22:57:58.827Z,5.70
2018-07-31T23:00:26.426Z,6.08
2018-07-31T23:02:54.044Z,6.17
2018-07-31T23:05:21.621Z,6.20
2018-07-31T23:07:49.243Z,5.55
2018-07-31T23:10:18.808Z,5.45
2018-07-31T23:12:47.301Z,5.58
2018-07-31T23:15:14.964Z,4.78
2018-07-31T23:17:42.634Z,4.75
2018-07-31T23:20:10.263Z,4.60
2018-07-31T23:22:46.347Z,4.90
2018-07-31T23:25:13.972Z,4.95
2018-07-31T23:27:41.621Z,5.47
2018-07-31T23:30:09.604Z,5.45
2018-07-31T23:32:37.900Z,5.15
2018-07-31T23:35:05.590Z,4.72
2018-07-31T23:37:33.248Z,4.70
2018-07-31T23:40:02.122Z,4.67
2018-07-31T23:42:30.389Z,4.78
2018-07-31T23:44:57.964Z,5.50
2018-07-31T23:47:26.508Z,5.20
2018-07-31T23:49:54.202Z,5.17
2018-07-31T23:52:21.879Z,5.28
2018-07-31T23:54:49.456Z,5.35
2018-07-31T23:57:17.371Z,5.40
2018-07-31T23:59:45.037Z,6.25
